createdAt,value
2017-12-28T00:00:19.829Z,0
2017-12-28T00:01:29.543Z,0
2017-12-28T00:02:40.370Z,0
2017-12-28T00:03:50.432Z,0
2017-12-28T00:05:00.142Z,0
2017-12-28T00:06:09.858Z,0
2017-12-28T00:07:19.838Z,0
2017-12-28T00:08:29.283Z,0
2017-12-28T00:09:39.268Z,0
2017-12-28T00:10:49.245Z,0
2017-12-28T00:11:59.224Z,0
2017-12-28T00:13:09.202Z,0
2017-12-28T00:14:18.914Z,0
2017-12-28T00:15:28.364Z,0
2017-12-28T00:16:38.337Z,0
2017-12-28T00:17:48.048Z,0
2017-12-28T00:18:58.025Z,0
2017-12-28T00:20:07.735Z,0
2017-12-28T00:21:17.718Z,0
2017-12-28T00:22:27.439Z,0
2017-12-28T00:23:37.430Z,0
2017-12-28T00:24:47.139Z,0
2017-12-28T00:25:57.115Z,0
2017-12-28T00:27:07.093Z,0
2017-12-28T00:28:17.068Z,0
2017-12-28T00:29:27.044Z,0
2017-12-28T00:30:36.759Z,0
2017-12-28T00:31:46.737Z,0
2017-12-28T00:32:56.718Z,0
2017-12-28T00:34:06.694Z,0
2017-12-28T00:35:16.668Z,0
2017-12-28T00:36:26.641Z,0
2017-12-28T00:37:36.623Z,0
2017-12-28T00:38:46.343Z,0
2017-12-28T00:39:55.789Z,0
2017-12-28T00:41:05.502Z,0
2017-12-28T00:42:15.229Z,0
2017-12-28T00:43:25.207Z,0
2017-12-28T00:44:35.187Z,0
2017-12-28T00:45:44.901Z,0
2017-12-28T00:46:54.619Z,0
2017-12-28T00:48:04.330Z,0
2017-12-28T00:49:14.046Z,0
2017-12-28T00:50:24.025Z,0
2017-12-28T00:51:34.005Z,0
2017-12-28T00:52:43.981Z,0
2017-12-28T00:53:53.953Z,0
2017-12-28T00:55:03.934Z,0
2017-12-28T00:56:13.642Z,0
2017-12-28T00:57:23.090Z,0
2017-12-28T00:58:33.065Z,0
2017-12-28T00:59:42.777Z,0
2017-12-28T01:00:52.751Z,0
2017-12-28T01:02:02.726Z,0
2017-12-28T01:03:12.703Z,0
2017-12-28T01:04:22.676Z,0
2017-12-28T01:05:32.400Z,0
2017-12-28T01:06:42.109Z,0
2017-12-28T01:07:52.101Z,0
2017-12-28T01:09:02.073Z,0
2017-12-28T01:10:11.791Z,0
2017-12-28T01:11:21.768Z,0
2017-12-28T01:12:33.481Z,0
2017-12-28T01:13:43.458Z,0
2017-12-28T01:14:53.434Z,0
2017-12-28T01:16:03.413Z,0
2017-12-28T01:17:13.385Z,0
2017-12-28T01:18:23.093Z,0
2017-12-28T01:19:32.804Z,0
2017-12-28T01:20:42.784Z,0
2017-12-28T01:21:52.757Z,0
2017-12-28T01:23:02.733Z,0
2017-12-28T01:24:12.727Z,0
2017-12-28T01:25:22.703Z,0
2017-12-28T01:26:32.153Z,0
2017-12-28T01:27:41.597Z,0
2017-12-28T01:28:51.311Z,0
2017-12-28T01:30:01.291Z,0
2017-12-28T01:31:11.002Z,0
2017-12-28T01:32:20.987Z,0
2017-12-28T01:33:30.693Z,0
2017-12-28T01:34:40.667Z,0
2017-12-28T01:35:50.643Z,0
2017-12-28T01:37:00.614Z,0
2017-12-28T01:38:10.324Z,0
2017-12-28T01:39:20.298Z,0
2017-12-28T01:40:29.746Z,0
2017-12-28T01:41:39.722Z,0
2017-12-28T01:42:49.439Z,0
2017-12-28T01:43:59.150Z,0
2017-12-28T01:45:08.864Z,0
2017-12-28T01:46:18.312Z,0
2017-12-28T01:47:28.027Z,0
2017-12-28T01:48:37.998Z,0
2017-12-28T01:49:47.712Z,0
2017-12-28T01:50:57.425Z,0
2017-12-28T01:52:07.405Z,0
2017-12-28T01:53:17.386Z,0
2017-12-28T01:54:27.361Z,0
2017-12-28T01:55:37.353Z,0
2017-12-28T01:56:47.063Z,0
2017-12-28T01:57:57.036Z,0
2017-12-28T01:59:07.015Z,0
2017-12-28T02:00:16.724Z,0
2017-12-28T02:01:26.169Z,0
2017-12-28T02:02:36.143Z,0
2017-12-28T02:03:45.853Z,0
2017-12-28T02:04:55.832Z,0
2017-12-28T02:06:05.807Z,0
2017-12-28T02:07:15.251Z,0
2017-12-28T02:08:25.227Z,0
2017-12-28T02:09:34.942Z,0
2017-12-28T02:10:44.914Z,0
2017-12-28T02:11:54.893Z,0
2017-12-28T02:13:04.604Z,0
2017-12-28T02:14:14.340Z,0
2017-12-28T02:15:24.093Z,0
2017-12-28T02:16:34.070Z,0
2017-12-28T02:17:43.779Z,0
2017-12-28T02:18:53.758Z,0
2017-12-28T02:20:03.729Z,0
2017-12-28T02:21:13.705Z,0
2017-12-28T02:22:23.422Z,0
2017-12-28T02:23:33.402Z,0
2017-12-28T02:24:43.380Z,0
2017-12-28T02:25:53.354Z,0
2017-12-28T02:27:03.326Z,0
2017-12-28T02:28:12.776Z,0
2017-12-28T02:29:22.753Z,0
2017-12-28T02:30:32.474Z,0
2017-12-28T02:31:42.498Z,0
2017-12-28T02:32:52.480Z,0
2017-12-28T02:34:02.455Z,0
2017-12-28T02:35:11.901Z,0
2017-12-28T02:36:21.612Z,0
2017-12-28T02:37:31.323Z,0
2017-12-28T02:38:41.033Z,0
2017-12-28T02:39:51.018Z,0
2017-12-28T02:41:00.997Z,0
2017-12-28T02:42:10.443Z,0
2017-12-28T02:43:20.155Z,0
2017-12-28T02:44:30.132Z,0
2017-12-28T02:45:40.108Z,0
2017-12-28T02:46:49.817Z,0
2017-12-28T02:47:59.795Z,0
2017-12-28T02:49:09.521Z,0
2017-12-28T02:50:19.499Z,0
2017-12-28T02:51:29.479Z,0
2017-12-28T02:52:39.462Z,0
2017-12-28T02:53:49.436Z,0
2017-12-28T02:54:59.145Z,0
2017-12-28T02:56:09.142Z,0
2017-12-28T02:57:19.116Z,0
2017-12-28T02:58:28.560Z,0
2017-12-28T02:59:38.536Z,0
2017-12-28T03:00:48.511Z,0
2017-12-28T03:01:58.486Z,0
2017-12-28T03:03:08.462Z,0
2017-12-28T03:04:18.172Z,0
2017-12-28T03:05:28.147Z,0
2017-12-28T03:06:37.600Z,0
2017-12-28T03:07:46.784Z,0
2017-12-28T03:08:56.761Z,0
2017-12-28T03:10:06.739Z,0
2017-12-28T03:11:16.189Z,0
2017-12-28T03:12:26.165Z,0
2017-12-28T03:13:36.153Z,0
2017-12-28T03:14:46.126Z,0
2017-12-28T03:15:56.100Z,0
2017-12-28T03:17:06.076Z,0
2017-12-28T03:18:15.519Z,0
2017-12-28T03:19:25.237Z,0
2017-12-28T03:20:35.216Z,0
2017-12-28T03:21:44.663Z,0
2017-12-28T03:22:54.643Z,0
2017-12-28T03:24:04.662Z,0
2017-12-28T03:25:14.636Z,0
2017-12-28T03:26:24.808Z,0
2017-12-28T03:27:34.517Z,0
2017-12-28T03:28:44.228Z,0
2017-12-28T03:29:53.672Z,0
2017-12-28T03:31:03.662Z,0
2017-12-28T03:32:13.373Z,0
2017-12-28T03:33:23.354Z,0
2017-12-28T03:34:33.330Z,0
2017-12-28T03:35:43.305Z,0
2017-12-28T03:36:53.282Z,0
2017-12-28T03:38:03.293Z,0
2017-12-28T03:39:13.276Z,0
2017-12-28T03:40:23.252Z,0
2017-12-28T03:41:32.962Z,0
2017-12-28T03:42:42.673Z,0
2017-12-28T03:43:52.652Z,0
2017-12-28T03:45:02.628Z,0
2017-12-28T03:46:12.337Z,0
2017-12-28T03:47:22.050Z,0
2017-12-28T03:48:31.761Z,0
2017-12-28T03:49:41.474Z,0
2017-12-28T03:50:51.453Z,0
2017-12-28T03:52:01.425Z,0
2017-12-28T03:53:11.399Z,0
2017-12-28T03:54:21.373Z,0
2017-12-28T03:55:31.081Z,0
2017-12-28T03:56:40.799Z,0
2017-12-28T03:57:50.251Z,0
2017-12-28T03:58:59.965Z,0
2017-12-28T04:00:09.940Z,0
2017-12-28T04:03:52.229Z,0
2017-12-28T04:05:01.941Z,0
2017-12-28T04:06:11.648Z,0
2017-12-28T04:07:21.619Z,0
2017-12-28T04:08:31.598Z,0
2017-12-28T04:09:41.603Z,0
2017-12-28T04:10:51.317Z,0
2017-12-28T04:12:01.291Z,0
2017-12-28T04:13:10.746Z,0
2017-12-28T04:14:20.461Z,0
2017-12-28T04:15:30.175Z,0
2017-12-28T04:16:39.886Z,0
2017-12-28T04:17:49.593Z,0
2017-12-28T04:18:59.572Z,0
2017-12-28T04:20:09.549Z,0
2017-12-28T04:21:19.257Z,0
2017-12-28T04:22:29.275Z,0
2017-12-28T04:23:39.258Z,0
2017-12-28T04:24:49.235Z,0
2017-12-28T04:25:59.209Z,0
2017-12-28T04:27:08.947Z,0
2017-12-28T04:28:18.921Z,0
2017-12-28T04:29:28.893Z,0
2017-12-28T04:30:38.869Z,0
2017-12-28T04:31:48.582Z,0
2017-12-28T04:32:58.565Z,0
2017-12-28T04:34:08.548Z,0
2017-12-28T04:35:18.259Z,0
2017-12-28T04:36:28.282Z,0
2017-12-28T04:37:38.255Z,0
2017-12-28T04:38:48.239Z,0
2017-12-28T04:39:58.224Z,0
2017-12-28T04:41:07.938Z,0
2017-12-28T04:42:17.695Z,0
2017-12-28T04:43:27.669Z,0
2017-12-28T04:44:37.376Z,0
2017-12-28T04:45:47.350Z,0
2017-12-28T04:46:57.327Z,0
2017-12-28T04:48:07.305Z,0
2017-12-28T04:49:17.017Z,0
2017-12-28T04:50:26.989Z,0
2017-12-28T04:51:36.177Z,0
2017-12-28T04:52:46.150Z,0
2017-12-28T04:53:56.133Z,0
2017-12-28T04:55:06.115Z,0
2017-12-28T04:56:16.182Z,0
2017-12-28T04:57:26.154Z,0
2017-12-28T04:58:36.129Z,0
2017-12-28T04:59:46.106Z,0
2017-12-28T05:00:55.824Z,0
2017-12-28T05:02:05.800Z,0
2017-12-28T05:03:15.249Z,0
2017-12-28T05:04:25.220Z,0
2017-12-28T05:05:35.199Z,0
2017-12-28T05:06:45.174Z,0
2017-12-28T05:07:54.886Z,0
2017-12-28T05:09:04.609Z,0
2017-12-28T05:10:14.588Z,0
2017-12-28T05:11:24.567Z,0
2017-12-28T05:12:34.279Z,0
2017-12-28T05:13:44.256Z,0
2017-12-28T05:14:54.231Z,0
2017-12-28T05:16:04.207Z,0
2017-12-28T05:17:13.669Z,0
2017-12-28T05:18:23.380Z,0
2017-12-28T05:19:33.354Z,0
2017-12-28T05:20:43.333Z,0
2017-12-28T05:21:53.315Z,0
2017-12-28T05:23:03.034Z,0
2017-12-28T05:24:12.745Z,0
2017-12-28T05:25:22.728Z,0
2017-12-28T05:26:32.701Z,0
2017-12-28T05:27:42.410Z,0
2017-12-28T05:28:52.121Z,0
2017-12-28T05:30:02.092Z,0
2017-12-28T05:31:11.805Z,0
2017-12-28T05:32:21.522Z,0
2017-12-28T05:33:31.233Z,0
2017-12-28T05:34:40.946Z,0
2017-12-28T05:35:50.974Z,0
2017-12-28T05:37:00.960Z,0
2017-12-28T05:38:10.407Z,0
2017-12-28T05:39:19.856Z,0
2017-12-28T05:40:29.830Z,0
2017-12-28T05:41:39.542Z,0
2017-12-28T05:42:49.256Z,0
2017-12-28T05:43:59.235Z,0
2017-12-28T05:45:09.209Z,0
2017-12-28T05:46:19.187Z,0
2017-12-28T05:47:29.165Z,0
2017-12-28T05:48:38.610Z,0
2017-12-28T05:49:48.588Z,0
2017-12-28T05:50:58.565Z,0
2017-12-28T05:52:08.555Z,0
2017-12-28T05:53:18.266Z,0
2017-12-28T05:54:28.248Z,0
2017-12-28T05:55:37.960Z,0
2017-12-28T05:56:47.932Z,0
2017-12-28T05:57:57.904Z,0
2017-12-28T05:59:07.907Z,0
2017-12-28T06:00:17.883Z,0
2017-12-28T06:01:27.868Z,0
2017-12-28T06:02:37.845Z,0
2017-12-28T06:03:47.872Z,0
2017-12-28T06:04:57.587Z,0
2017-12-28T06:06:07.569Z,0
2017-12-28T06:07:17.544Z,0
2017-12-28T06:08:27.523Z,0
2017-12-28T06:09:36.967Z,0
2017-12-28T06:10:46.940Z,0
2017-12-28T06:11:56.919Z,0
2017-12-28T06:13:06.896Z,0
2017-12-28T06:14:16.606Z,0
2017-12-28T06:15:26.581Z,0
2017-12-28T06:16:36.032Z,0
2017-12-28T06:17:46.016Z,0
2017-12-28T06:18:55.739Z,0
2017-12-28T06:20:05.712Z,0
2017-12-28T06:21:15.690Z,0
2017-12-28T06:22:25.669Z,0
2017-12-28T06:23:35.651Z,0
2017-12-28T06:24:45.630Z,0
2017-12-28T06:25:55.077Z,0
2017-12-28T06:27:05.060Z,0
2017-12-28T06:28:14.504Z,0
2017-12-28T06:29:24.478Z,0
2017-12-28T06:30:34.455Z,0
2017-12-28T06:31:44.430Z,0
2017-12-28T06:32:54.411Z,0
2017-12-28T06:34:04.401Z,0
2017-12-28T06:35:14.138Z,0
2017-12-28T06:36:23.588Z,0
2017-12-28T06:37:33.309Z,0
2017-12-28T06:38:43.290Z,0
2017-12-28T06:39:53.262Z,0
2017-12-28T06:41:03.242Z,0
2017-12-28T06:42:13.222Z,0
2017-12-28T06:43:23.200Z,0
2017-12-28T06:44:33.178Z,0
2017-12-28T06:45:43.163Z,0
2017-12-28T06:46:53.142Z,0
2017-12-28T06:48:03.117Z,0
2017-12-28T06:49:13.096Z,0
2017-12-28T06:50:23.074Z,0
2017-12-28T06:51:32.787Z,0
2017-12-28T06:52:43.863Z,0
2017-12-28T06:53:53.843Z,0
2017-12-28T06:55:03.827Z,0
2017-12-28T06:56:13.537Z,0
2017-12-28T06:57:23.520Z,0
2017-12-28T06:58:33.549Z,0
2017-12-28T06:59:43.266Z,0
2017-12-28T07:00:53.249Z,0
2017-12-28T07:02:03.225Z,0
2017-12-28T07:03:13.201Z,0
2017-12-28T07:04:23.188Z,0
2017-12-28T07:05:33.166Z,0
2017-12-28T07:06:43.143Z,0
2017-12-28T07:07:52.863Z,0
2017-12-28T07:09:02.313Z,0
2017-12-28T07:10:14.031Z,0
2017-12-28T07:11:24.006Z,0
2017-12-28T07:12:33.986Z,0
2017-12-28T07:13:43.963Z,0
2017-12-28T07:14:53.986Z,0
2017-12-28T07:16:03.963Z,0
2017-12-28T07:17:13.942Z,0
2017-12-28T07:18:23.917Z,0
2017-12-28T07:19:33.893Z,0
2017-12-28T07:20:43.603Z,0
2017-12-28T07:21:53.317Z,0
2017-12-28T07:23:03.026Z,0
2017-12-28T07:24:12.740Z,0
2017-12-28T07:25:22.720Z,0
2017-12-28T07:26:32.431Z,0
2017-12-28T07:27:42.407Z,0
2017-12-28T07:28:51.852Z,0
2017-12-28T07:30:01.830Z,0
2017-12-28T07:31:11.542Z,0
2017-12-28T07:32:21.523Z,0
2017-12-28T07:33:30.977Z,0
2017-12-28T07:34:40.967Z,0
2017-12-28T07:35:50.946Z,0
2017-12-28T07:37:00.922Z,0
2017-12-28T07:38:10.632Z,0
2017-12-28T07:39:20.605Z,0
2017-12-28T07:40:30.056Z,0
2017-12-28T07:41:40.032Z,0
2017-12-28T07:42:50.017Z,0
2017-12-28T07:43:59.993Z,0
2017-12-28T07:45:09.706Z,0
2017-12-28T07:46:19.688Z,0
2017-12-28T07:47:29.400Z,0
2017-12-28T07:48:39.113Z,0
2017-12-28T07:49:48.827Z,0
2017-12-28T07:51:00.586Z,0
2017-12-28T07:52:10.299Z,0
2017-12-28T07:53:20.273Z,0
2017-12-28T07:54:30.250Z,0
2017-12-28T07:55:40.227Z,0
2017-12-28T07:56:50.208Z,0
2017-12-28T07:58:00.187Z,0
2017-12-28T07:59:09.904Z,0
2017-12-28T08:00:19.624Z,0
2017-12-28T08:01:29.602Z,0
2017-12-28T08:02:39.319Z,0
2017-12-28T08:03:49.034Z,0
2017-12-28T08:04:59.023Z,0
2017-12-28T08:06:08.999Z,0
2017-12-28T08:07:18.977Z,0
2017-12-28T08:08:28.952Z,0
2017-12-28T08:09:38.928Z,0
2017-12-28T08:10:48.909Z,0
2017-12-28T08:11:58.884Z,0
2017-12-28T08:13:08.597Z,0
2017-12-28T08:14:18.583Z,0
2017-12-28T08:15:28.299Z,0
2017-12-28T08:16:38.011Z,0
2017-12-28T08:17:47.727Z,0
2017-12-28T08:18:57.180Z,0
2017-12-28T08:20:07.168Z,0
2017-12-28T08:21:16.884Z,0
2017-12-28T08:22:26.870Z,0
2017-12-28T08:23:36.582Z,5
2017-12-28T08:24:46.560Z,5
2017-12-28T08:25:56.275Z,5
2017-12-28T08:27:06.257Z,5
2017-12-28T08:28:15.970Z,5
2017-12-28T08:29:25.417Z,5
2017-12-28T08:30:35.141Z,5
2017-12-28T08:31:44.859Z,5
2017-12-28T08:32:54.845Z,5
2017-12-28T08:34:04.561Z,5
2017-12-28T08:35:14.541Z,5
2017-12-28T08:36:24.520Z,5
2017-12-28T08:37:33.966Z,5
2017-12-28T08:38:43.952Z,5
2017-12-28T08:39:53.929Z,5
2017-12-28T08:41:03.909Z,10
2017-12-28T08:42:13.883Z,10
2017-12-28T08:43:23.859Z,10
2017-12-28T08:44:33.836Z,10
2017-12-28T08:45:43.295Z,10
2017-12-28T08:46:52.480Z,10
2017-12-28T08:48:02.195Z,10
2017-12-28T08:49:13.697Z,10
2017-12-28T08:50:23.410Z,10
2017-12-28T08:51:33.388Z,10
2017-12-28T08:52:42.580Z,10
2017-12-28T08:53:52.051Z,10
2017-12-28T08:55:01.762Z,10
2017-12-28T08:56:11.479Z,10
2017-12-28T08:57:21.470Z,15
2017-12-28T08:58:31.235Z,15
2017-12-28T08:59:41.220Z,15
2017-12-28T09:00:53.625Z,15
2017-12-28T09:02:03.600Z,15
2017-12-28T09:03:13.315Z,15
2017-12-28T09:04:23.040Z,15
2017-12-28T09:05:33.019Z,15
2017-12-28T09:06:44.147Z,15
2017-12-28T09:07:54.128Z,15
2017-12-28T09:09:03.849Z,15
2017-12-28T09:10:13.825Z,20
2017-12-28T09:11:23.802Z,20
2017-12-28T09:12:33.620Z,20
2017-12-28T09:13:42.808Z,20
2017-12-28T09:14:52.787Z,20
2017-12-28T09:16:02.771Z,20
2017-12-28T09:17:12.483Z,20
2017-12-28T09:18:22.464Z,20
2017-12-28T09:19:32.450Z,20
2017-12-28T09:20:41.900Z,20
2017-12-28T09:21:51.878Z,20
2017-12-28T09:23:01.858Z,20
2017-12-28T09:24:11.576Z,20
2017-12-28T09:25:21.557Z,20
2017-12-28T09:26:31.269Z,20
2017-12-28T09:27:41.247Z,20
2017-12-28T09:28:51.223Z,20
2017-12-28T09:30:01.241Z,20
2017-12-28T09:31:10.697Z,20
2017-12-28T09:32:20.678Z,20
2017-12-28T09:33:30.656Z,20
2017-12-28T09:34:40.639Z,20
2017-12-28T09:35:50.667Z,20
2017-12-28T09:37:00.114Z,20
2017-12-28T09:38:09.610Z,25
2017-12-28T09:39:19.592Z,25
2017-12-28T09:40:29.569Z,25
2017-12-28T09:41:39.278Z,25
2017-12-28T09:42:49.256Z,25
2017-12-28T09:43:59.233Z,25
2017-12-28T09:45:09.212Z,25
2017-12-28T09:46:19.195Z,25
2017-12-28T09:47:29.178Z,25
2017-12-28T09:48:39.153Z,30
2017-12-28T09:49:48.865Z,30
2017-12-28T09:50:58.842Z,30
2017-12-28T09:52:08.559Z,30
2017-12-28T09:53:18.270Z,30
2017-12-28T09:54:27.986Z,35
2017-12-28T09:55:37.969Z,35
2017-12-28T09:56:47.948Z,35
2017-12-28T09:57:57.663Z,35
2017-12-28T09:59:07.642Z,35
2017-12-28T10:00:17.624Z,40
2017-12-28T10:01:27.081Z,40
2017-12-28T10:02:36.794Z,40
2017-12-28T10:03:46.770Z,40
2017-12-28T10:04:56.746Z,40
2017-12-28T10:06:06.727Z,40
2017-12-28T10:07:16.445Z,40
2017-12-28T10:08:26.424Z,40
2017-12-28T10:09:36.143Z,40
2017-12-28T10:10:46.341Z,40
2017-12-28T10:11:56.324Z,40
2017-12-28T10:13:06.038Z,40
2017-12-28T10:14:15.750Z,40
2017-12-28T10:15:25.733Z,40
2017-12-28T10:16:35.450Z,45
2017-12-28T10:17:45.436Z,45
2017-12-28T10:18:55.155Z,45
2017-12-28T10:20:05.138Z,50
2017-12-28T10:21:14.848Z,50
2017-12-28T10:22:24.828Z,55
2017-12-28T10:23:34.853Z,55
2017-12-28T10:24:44.567Z,60
2017-12-28T10:25:54.331Z,60
2017-12-28T10:27:04.052Z,65
2017-12-28T10:28:14.083Z,70
2017-12-28T10:29:24.066Z,75
2017-12-28T10:30:33.779Z,75
2017-12-28T10:31:43.757Z,80
2017-12-28T10:32:53.736Z,80
2017-12-28T10:34:03.721Z,85
2017-12-28T10:35:13.700Z,90
2017-12-28T10:36:23.676Z,95
2017-12-28T10:37:33.652Z,100
2017-12-28T10:38:43.629Z,105
2017-12-28T10:39:53.613Z,110
2017-12-28T10:41:03.331Z,115
2017-12-28T10:42:13.307Z,120
2017-12-28T10:43:23.288Z,120
2017-12-28T10:44:33.271Z,125
2017-12-28T10:45:42.981Z,125
2017-12-28T10:46:52.428Z,130
2017-12-28T10:48:02.424Z,135
2017-12-28T10:49:12.142Z,135
2017-12-28T10:50:22.119Z,135
2017-12-28T10:51:32.095Z,135
2017-12-28T10:52:42.094Z,140
2017-12-28T10:53:52.136Z,145
2017-12-28T10:55:02.127Z,140
2017-12-28T10:56:11.852Z,135
2017-12-28T10:57:21.835Z,135
2017-12-28T10:58:31.549Z,135
2017-12-28T10:59:41.527Z,130
2017-12-28T11:00:51.241Z,130
2017-12-28T11:02:01.221Z,130
2017-12-28T11:03:11.555Z,125
2017-12-28T11:04:21.268Z,125
2017-12-28T11:05:31.245Z,120
2017-12-28T11:06:40.957Z,120
2017-12-28T11:07:50.675Z,120
2017-12-28T11:09:00.679Z,120
2017-12-28T11:10:10.135Z,120
2017-12-28T11:11:20.129Z,125
2017-12-28T11:12:30.108Z,130
2017-12-28T11:13:40.089Z,130
2017-12-28T11:14:53.569Z,130
2017-12-28T11:16:03.291Z,135
2017-12-28T11:17:13.011Z,135
2017-12-28T11:18:22.727Z,135
2017-12-28T11:19:32.714Z,135
2017-12-28T11:20:42.691Z,135
2017-12-28T11:21:52.676Z,130
2017-12-28T11:23:02.136Z,130
2017-12-28T11:24:11.851Z,125
2017-12-28T11:25:21.837Z,125
2017-12-28T11:26:31.549Z,120
2017-12-28T11:27:41.265Z,115
2017-12-28T11:28:50.982Z,110
2017-12-28T11:30:00.962Z,110
2017-12-28T11:31:10.682Z,105
2017-12-28T11:32:20.660Z,105
2017-12-28T11:33:30.638Z,100
2017-12-28T11:34:40.354Z,100
2017-12-28T11:35:50.080Z,100
2017-12-28T11:36:59.834Z,95
2017-12-28T11:38:09.025Z,95
2017-12-28T11:39:18.478Z,90
2017-12-28T11:40:28.194Z,90
2017-12-28T11:41:37.645Z,90
2017-12-28T11:42:47.356Z,85
2017-12-28T11:43:57.070Z,85
2017-12-28T11:45:06.840Z,80
2017-12-28T11:46:16.288Z,80
2017-12-28T11:47:26.315Z,75
2017-12-28T11:48:36.294Z,70
2017-12-28T11:49:46.267Z,70
2017-12-28T11:50:56.256Z,65
2017-12-28T11:52:05.970Z,65
2017-12-28T11:53:15.944Z,65
2017-12-28T11:54:25.924Z,65
2017-12-28T11:55:35.898Z,60
2017-12-28T11:56:45.873Z,60
2017-12-28T11:57:55.850Z,60
2017-12-28T11:59:05.297Z,60
2017-12-28T12:00:15.276Z,60
2017-12-28T12:01:25.255Z,65
2017-12-28T12:02:35.262Z,60
2017-12-28T12:03:45.235Z,60
2017-12-28T12:04:55.209Z,65
2017-12-28T12:06:04.658Z,65
2017-12-28T12:07:14.637Z,65
2017-12-28T12:08:24.620Z,65
2017-12-28T12:09:34.596Z,65
2017-12-28T12:10:44.573Z,65
2017-12-28T12:11:54.286Z,65
2017-12-28T12:13:04.002Z,65
2017-12-28T12:14:13.721Z,65
2017-12-28T12:15:23.442Z,70
2017-12-28T12:16:33.419Z,70
2017-12-28T12:17:43.396Z,70
2017-12-28T12:18:53.371Z,70
2017-12-28T12:20:03.347Z,65
2017-12-28T12:21:13.061Z,65
2017-12-28T12:22:23.036Z,65
2017-12-28T12:23:32.749Z,65
2017-12-28T12:24:41.935Z,65
2017-12-28T12:25:51.922Z,65
2017-12-28T12:27:01.381Z,65
2017-12-28T12:28:11.094Z,65
2017-12-28T12:29:21.125Z,70
2017-12-28T12:30:31.109Z,70
2017-12-28T12:31:41.106Z,75
2017-12-28T12:32:51.093Z,75
2017-12-28T12:34:01.103Z,70
2017-12-28T12:35:11.083Z,75
2017-12-28T12:36:21.095Z,75
2017-12-28T12:37:30.552Z,70
2017-12-28T12:38:40.529Z,70
2017-12-28T12:39:50.527Z,70
2017-12-28T12:41:00.504Z,70
2017-12-28T12:42:09.690Z,70
2017-12-28T12:43:19.403Z,65
2017-12-28T12:44:29.381Z,65
2017-12-28T12:45:38.830Z,65
2017-12-28T12:46:48.813Z,65
2017-12-28T12:47:58.788Z,60
2017-12-28T12:49:08.514Z,60
2017-12-28T12:50:18.490Z,65
2017-12-28T12:51:28.209Z,65
2017-12-28T12:52:38.185Z,65
2017-12-28T12:53:48.169Z,65
2017-12-28T12:54:58.143Z,65
2017-12-28T12:56:08.123Z,65
2017-12-28T12:57:17.860Z,70
2017-12-28T12:58:27.837Z,75
2017-12-28T12:59:37.288Z,80
2017-12-28T13:00:47.270Z,80
2017-12-28T13:01:57.251Z,85
2017-12-28T13:03:06.438Z,85
2017-12-28T13:04:16.416Z,85
2017-12-28T13:05:26.395Z,85
2017-12-28T13:06:36.114Z,80
2017-12-28T13:07:45.828Z,80
2017-12-28T13:08:55.543Z,70
2017-12-28T13:10:04.996Z,65
2017-12-28T13:11:14.997Z,60
2017-12-28T13:12:24.714Z,60
2017-12-28T13:13:34.697Z,55
2017-12-28T13:14:44.674Z,50
2017-12-28T13:15:54.394Z,45
2017-12-28T13:17:04.115Z,45
2017-12-28T13:18:14.122Z,45
2017-12-28T13:19:24.111Z,45
2017-12-28T13:20:33.824Z,40
2017-12-28T13:21:43.539Z,35
2017-12-28T13:22:53.517Z,35
2017-12-28T13:24:03.498Z,30
2017-12-28T13:25:13.535Z,30
2017-12-28T13:26:23.522Z,30
2017-12-28T13:27:33.505Z,25
2017-12-28T13:28:43.480Z,25
2017-12-28T13:29:53.197Z,25
2017-12-28T13:31:03.189Z,25
2017-12-28T13:32:13.177Z,30
2017-12-28T13:33:23.162Z,30
2017-12-28T13:34:33.148Z,30
2017-12-28T13:35:43.127Z,25
2017-12-28T13:36:52.848Z,25
2017-12-28T13:38:02.881Z,25
2017-12-28T13:39:12.864Z,20
2017-12-28T13:40:22.322Z,20
2017-12-28T13:41:32.304Z,20
2017-12-28T13:42:42.329Z,20
2017-12-28T13:43:52.319Z,20
2017-12-28T13:45:02.300Z,20
2017-12-28T13:46:11.754Z,20
2017-12-28T13:47:21.737Z,15
2017-12-28T13:48:31.501Z,15
2017-12-28T13:49:41.484Z,15
2017-12-28T13:50:50.933Z,15
2017-12-28T13:52:00.653Z,15
2017-12-28T13:53:10.641Z,15
2017-12-28T13:54:20.353Z,10
2017-12-28T13:55:30.328Z,10
2017-12-28T13:56:40.044Z,10
2017-12-28T13:57:49.498Z,10
2017-12-28T13:58:59.476Z,10
2017-12-28T14:00:09.458Z,10
2017-12-28T14:01:19.171Z,10
2017-12-28T14:02:28.888Z,10
2017-12-28T14:03:38.338Z,10
2017-12-28T14:04:48.318Z,5
2017-12-28T14:05:58.035Z,5
2017-12-28T14:07:08.019Z,5
2017-12-28T14:08:18.008Z,5
2017-12-28T14:09:27.733Z,5
2017-12-28T14:10:37.715Z,5
2017-12-28T14:11:47.438Z,5
2017-12-28T14:12:57.154Z,5
2017-12-28T14:14:07.182Z,5
2017-12-28T14:15:17.164Z,5
2017-12-28T14:16:27.190Z,5
2017-12-28T14:17:36.646Z,0
2017-12-28T14:18:46.623Z,0
2017-12-28T14:19:56.336Z,0
2017-12-28T14:21:06.313Z,0
2017-12-28T14:22:15.772Z,0
2017-12-28T14:23:25.750Z,0
2017-12-28T14:24:35.468Z,0
2017-12-28T14:25:45.229Z,0
2017-12-28T14:26:55.222Z,0
2017-12-28T14:28:04.967Z,0
2017-12-28T14:29:14.948Z,0
2017-12-28T14:30:24.935Z,0
2017-12-28T14:31:34.657Z,0
2017-12-28T14:32:44.640Z,0
2017-12-28T14:33:54.620Z,0
2017-12-28T14:35:04.601Z,0
2017-12-28T14:36:14.327Z,0
2017-12-28T14:37:24.040Z,0
2017-12-28T14:38:33.754Z,0
2017-12-28T14:39:43.740Z,0
2017-12-28T14:40:53.462Z,0
2017-12-28T14:42:03.441Z,0
2017-12-28T14:43:13.162Z,0
2017-12-28T14:44:22.879Z,0
2017-12-28T14:45:32.334Z,0
2017-12-28T14:46:42.048Z,0
2017-12-28T14:47:52.030Z,0
2017-12-28T14:49:02.006Z,0
2017-12-28T14:50:11.987Z,0
2017-12-28T14:51:21.965Z,0
2017-12-28T14:52:31.415Z,0
2017-12-28T14:53:41.394Z,0
2017-12-28T14:54:51.376Z,0
2017-12-28T14:56:01.084Z,0
2017-12-28T14:57:10.805Z,0
2017-12-28T14:58:20.523Z,0
2017-12-28T14:59:29.981Z,0
2017-12-28T15:00:39.699Z,0
2017-12-28T15:01:49.677Z,0
2017-12-28T15:02:59.661Z,0
2017-12-28T15:04:08.850Z,0
2017-12-28T15:05:18.831Z,0
2017-12-28T15:06:28.281Z,0
2017-12-28T15:07:38.260Z,0
2017-12-28T15:08:47.712Z,0
2017-12-28T15:09:57.688Z,0
2017-12-28T15:11:07.405Z,0
2017-12-28T15:12:16.872Z,0
2017-12-28T15:13:28.854Z,0
2017-12-28T15:14:38.837Z,0
2017-12-28T15:15:48.815Z,0
2017-12-28T15:16:58.792Z,0
2017-12-28T15:18:08.777Z,0
2017-12-28T15:19:18.492Z,0
2017-12-28T15:20:28.211Z,0
2017-12-28T15:21:38.190Z,0
2017-12-28T15:22:48.170Z,0
2017-12-28T15:23:58.150Z,0
2017-12-28T15:25:07.600Z,0
2017-12-28T15:26:16.787Z,0
2017-12-28T15:27:26.766Z,0
2017-12-28T15:28:36.481Z,0
2017-12-28T15:29:46.456Z,0
2017-12-28T15:30:56.441Z,0
2017-12-28T15:32:06.154Z,0
2017-12-28T15:33:15.869Z,0
2017-12-28T15:34:25.862Z,0
2017-12-28T15:35:35.842Z,0
2017-12-28T15:36:45.819Z,0
2017-12-28T15:37:55.534Z,0
2017-12-28T15:39:05.513Z,0
2017-12-28T15:40:15.498Z,0
2017-12-28T15:41:25.215Z,0
2017-12-28T15:42:34.667Z,0
2017-12-28T15:43:44.641Z,0
2017-12-28T15:44:54.621Z,0
2017-12-28T15:46:04.616Z,0
2017-12-28T15:47:14.607Z,0
2017-12-28T15:48:24.596Z,0
2017-12-28T15:49:34.577Z,0
2017-12-28T15:50:44.292Z,0
2017-12-28T15:51:54.269Z,0
2017-12-28T15:53:03.981Z,0
2017-12-28T15:54:13.969Z,0
2017-12-28T15:55:23.686Z,0
2017-12-28T15:56:33.664Z,0
2017-12-28T15:57:43.375Z,0
2017-12-28T15:58:53.090Z,0
2017-12-28T16:00:02.807Z,0
2017-12-28T16:01:12.263Z,0
2017-12-28T16:02:22.256Z,0
2017-12-28T16:03:32.240Z,0
2017-12-28T16:04:41.961Z,0
2017-12-28T16:05:51.940Z,0
2017-12-28T16:07:01.661Z,0
2017-12-28T16:08:11.374Z,0
2017-12-28T16:09:21.359Z,0
2017-12-28T16:10:31.341Z,0
2017-12-28T16:11:41.320Z,0
2017-12-28T16:12:51.038Z,0
2017-12-28T16:14:01.013Z,0
2017-12-28T16:15:10.468Z,0
2017-12-28T16:16:20.181Z,0
2017-12-28T16:17:29.894Z,0
2017-12-28T16:18:39.610Z,0
2017-12-28T16:19:49.586Z,0
2017-12-28T16:20:59.563Z,0
2017-12-28T16:22:09.353Z,0
2017-12-28T16:23:19.335Z,0
2017-12-28T16:24:29.318Z,0
2017-12-28T16:25:39.029Z,0
2017-12-28T16:26:49.008Z,0
2017-12-28T16:27:58.724Z,0
2017-12-28T16:29:08.703Z,0
2017-12-28T16:30:18.420Z,0
2017-12-28T16:31:28.396Z,0
2017-12-28T16:32:37.841Z,0
2017-12-28T16:33:47.555Z,0
2017-12-28T16:34:57.268Z,0
2017-12-28T16:36:06.454Z,0
2017-12-28T16:37:16.493Z,0
2017-12-28T16:38:26.468Z,0
2017-12-28T16:39:35.919Z,0
2017-12-28T16:40:45.376Z,0
2017-12-28T16:41:55.359Z,0
2017-12-28T16:43:05.343Z,0
2017-12-28T16:44:15.399Z,0
2017-12-28T16:45:25.381Z,0
2017-12-28T16:46:35.358Z,0
2017-12-28T16:47:44.808Z,0
2017-12-28T16:48:54.788Z,0
2017-12-28T16:50:04.532Z,0
2017-12-28T16:51:14.246Z,0
2017-12-28T16:52:25.960Z,0
2017-12-28T16:53:35.941Z,0
2017-12-28T16:54:45.914Z,0
2017-12-28T16:55:55.631Z,0
2017-12-28T16:57:05.345Z,0
2017-12-28T16:58:15.324Z,0
2017-12-28T16:59:25.308Z,0
2017-12-28T17:00:34.764Z,0
2017-12-28T17:01:44.741Z,0